LiveATC.Net - Listen to live air traffic control over the Internet! Contact LiveATC.net for advertising information

Find LiveATC Audio Streams


Airport/ARTCC Code

Frequency
(e.g., 124.400, 128.75)
Site-wide search

Browse LiveATC Feeds
LiveATC Coverage Map
Top 50 LiveATC Feeds
Bad Weather Areas

LiveATC FAQ
Offer a LiveATC Feed
Contact LiveATC.net
Press Inquiries

LiveATC on iPhone
LiveATC on Android

LiveATC Mobile
(Mobile browser)

ATC Audio Archives
Interesting Recordings

LiveATC Forums

Home Page
About LiveATC.net
Make a Donation
LiveATC Bookstore

Terms of Use
Privacy Policy

ATC/Radar Sites
U.S. ARTCC Freqs
Canadian Air Freqs

AIRMETs/SIGMETs

FAA Airport Status
Nat'l Airspace Status
Arrival Demand Charts


Server Software By:
Icecast.org
Liquidsoap


Current Potentially Bad Weather Airports
(updated every 30 minutes - sorted alphabetically by ICAO code)



This page lists LiveATC.net airport areas that may be interesting to listen to because of challenging flying (weather) conditions. Challenging weather conditions include low ceilings, limited visibility, high or gusty winds, or thunderstorms. This is an evolving new feature and comments are welcome.

Updated: Sun Nov 23 02:10:01 UTC 2014
Click on airport name to go to that airport area's feeds.

BIKF Twr/App/Radar
WX MAP UNAVAILABLEBIKF 230130Z 15013KT 0800 R20/P1500N FG OVC003 08/08 Q1001
CYKF Tower
cykfCYKF 230133Z AUTO 22011KT 2SM -RA BR OVC006 04/04 A2992 RMK PCPN 0.8MM PAST HR SLP143
CYKZ Ground/Tower
cykzCYKZ 230113Z 22007KT 6SM -RA BR OVC008 RMK SC8
CYMX Ground/Radio
cymxCYMX 230100Z 23004KT 200V270 15SM -FZRA OVC009 00/M02 A2987 RMK ST8 SLP121
CYOO Twr/Gnd #2
cyooCYOO 230158Z AUTO 21006KT 2 1/4SM -RA OVC010 05/04 A2992 RMK SLP136
CYOW Del/Gnd/Twr/App
cyowCYOW 230100Z 23008KT 10SM OVC007 02/01 A2988 RMK SC8 SLP125
CYPQ UNICOM/Guard
cypqCYPQ 230147Z AUTO 23005KT 4SM -RA BR OVC009 04/03 A2991 RMK SLP134
CYQB Gnd/Twr/App
cyqbCYQB 230151Z 24016G21KT 1 1/4SM -SN BLSN OVC005 M01/M02 A2983 RMK BLSN5SC3 SLP105
CYSB Gnd/Twr/Center
WX MAP UNAVAILABLECYSB 230100Z 24009KT 1SM R22/P6000FT/U -DZ BR VV002 01/01 A2975 RMK FG8 SLP090
CYTS CTAF/FSS/Area
WX MAP UNAVAILABLECYTS 230100Z 23005KT 4SM -SN BKN008 OVC023 00/M00 A2966 RMK SF5SC3 SLP060
CYTZ Tower
cytzCYTZ 230157Z AUTO 23007KT 2 1/2SM BR OVC015 05/05 A2994 RMK SLP141
CYVO Gnd/RDO/Center
WX MAP UNAVAILABLECYVO 230134Z 24008KT 3SM -DZ BR OVC004 01/00 A2969 RMK SF8 SLP074
CYXE Gnd/Twr/App/Center
WX MAP UNAVAILABLECYXE 230100Z 05022G30KT 2SM -SN DRSN BKN009 OVC024 M06/M07 A2922 RMK SC5SC3 /S01/ VIS VRB 1-3 SLP922
CYYC Twr/App/Center
WX MAP UNAVAILABLECYYC 230100Z 36011KT 15SM -SN SCT060 BKN075 OVC130 01/M02 A2942 RMK SC3AC4AC1 SLP998
EFKU Tower/Approach
WX MAP UNAVAILABLEEFKU 230150Z AUTO VRB03KT 060V160 9999 OVC005 M01/M02 Q1029
EKBI Twr/App/Control
WX MAP UNAVAILABLEEKBI 230150Z 11007KT 3500 BR OVC005 06/05 Q1020
EPRZ Del/Twr/EPWW Radar
WX MAP UNAVAILABLEEPRZ 230130Z 00000KT 2500 BR FEW005 OVC009 02/02 Q1030
ESOE Twr/App
WX MAP UNAVAILABLEESOE 230150Z AUTO 11002KT 2900NDV BR OVC001/// 02/02 Q1028
EVRA Tower/Guard
WX MAP UNAVAILABLEEVRA 230150Z 14002KT 1900 1300NW R18/1600D BR OVC002 00/00 Q1030 R18/290195 NOSIG
KAAO CTAF
kaaoKAAO 230154Z AUTO 17015G21KT 10SM OVC009 13/11 A2971 RMK AO2 SLP062 T01280111
KACK Tower
kackKACK 230153Z AUTO 23026G35KT 10SM OVC060 10/04 A3017 RMK AO2 PK WND 24035/0149 SLP216 T01000039
KALO Gnd/Twr/App
kaloKALO 230154Z 17009KT 4SM BR OVC004 10/10 A2969 RMK AO2 SLP059 T01000100 $
KASE Del/Gnd/Twr/ZDC
kaseKASE 230153Z 22003KT 2SM -SN BR VV005 00/M01 A2983 RMK AO2 SNB0055E05B41 SLP093 P0000 T00001011
KATW Gnd/Twr/App
katwKATW 230145Z 18004KT 1SM BR VV004 03/03 A2977
KAUN CTAF
kaunKAUN 230155Z AUTO 00000KT 1/4SM VV002 09/09 A3017 RMK AO1
KAUS Del/Gnd/Twr/App #1
kausKAUS 230153Z 29009G17KT 10SM -TSRA OVC006CB 19/19 A2976 RMK AO2 RAB15 TSB46 SLP073 OCNL LTGICCCCG SW-NW TS SW-NW MOV NE P0000 T01890189 $
KBNW CTAF
kbnwKBNW 230135Z AUTO 4SM BR OVC003 11/11 A2963 RMK AO2
KBTR Del/Gnd/Twr/App
kbtrKBTR 230153Z 07010KT 10SM OVC009 18/15 A2995 RMK AO2 SLP141 T01780150
KCLL Gnd/Twr/App
kcllKCLL 230153Z 00000KT 1 3/4SM +RA BR BKN017 OVC023 18/17 A2978 RMK AO2 VIS 1V5 LTG DSNT W AND NW SLP083 P0064 T01780172 $
KCOS Gnd/Twr/App/Dep
kcosKCOS 230154Z 29025G38KT 10SM FEW090 FEW180 BKN240 13/M08 A2964 RMK AO2 PK WND 30038/0154 SLP028 T01281078
KDBQ Gnd/Twr/ZAU
kdbqKDBQ 230153Z AUTO 19015KT 4SM BR OVC005 10/09 A2973 RMK AO2 SLP075 T01000094 $
KDLH Gnd/Twr/App
kdlhKDLH 230155Z 15008KT 3SM BR OVC004 01/M01 A2958 RMK AO2 SLP036 T00061006
KEAU Tower
keauKEAU 230156Z 14004KT 2SM BR OVC003 02/02 A2967 RMK AO2 SLP054 T00220017
F44 CTAF
kf44KF44 230135Z AUTO 36010KT 4SM +RA BKN004 BKN012 OVC021 16/16 A2984 RMK AO2 LTG DSNT SW P0035
KFAR Approach/Departure
kfarKFAR 230153Z 16017G27KT 6SM BR OVC005 02/M01 A2941 RMK AO2 PK WND 15027/0144 SLP970 T00171006
KFCM Tower
kfcmKFCM 230153Z 15006KT 2SM BR OVC002 02/02 A2957 RMK AO2 SLP022 T00220022
KFNT Del/Gnd/Twr/App #1
kfntKFNT 230153Z 20008KT 1 1/2SM BR OVC008 08/06 A2990 RMK AO2 RAE0056 CIG 005V012 SLP132 P0001 T00780061
KFWS Ground/Tower
kfwsKFWS 230155Z AUTO 00000KT 10SM BKN040 OVC110 14/13 A2985 RMK AO2 LTG DSNT SE T01400130
KGGG Gnd/Twr/App
kgggKGGG 230155Z 15005KT 1 1/2SM R13/5000VP6000FT +TSRA BR FEW006 BKN030 OVC039 17/16 A2986 RMK AO2 LTG DSNT S P0007 T01670161
KGRB Del/Gnd/Twr/App
kgrbKGRB 230153Z 19004KT 1 1/4SM BR OVC004 03/03 A2977 RMK AO2 SLP090 T00330033
KGTU Gnd/Twr
kgtuKGTU 230147Z 00000KT 7SM TSRA SCT070 OVC095 17/16 A2980 RMK TS OVHD MOVG E FREQ LTG INCLD CLDG
KGYI Ground/Tower
kgyiKGYI 230155Z AUTO 21007KT 7SM RA OVC006 15/15 A2986 RMK AO2 P0002 T01510151
KHUL/KPQI/ZBW01/15
khulKHUL 230153Z AUTO 21005KT 8SM -SN SCT036 OVC050 M02/M09 A2983 RMK AO2 SNB0055E07B51 SLP112 P0000 T10221089
KHUT Ground/Twr
khutKHUT 230152Z 17015KT 10SM OVC008 14/12 A2967 RMK AO2 CIG 007V012 SLP039 T01390117
KHYA Twr/Cape App/ZBW/ZNY
khyaKHYA 230156Z 22021G32KT 10SM SCT039 BKN048 09/03 A3011 RMK AO2 PK WND 23035/0135 SLP196 T00890033
KIAB Tower
kiabKIAB 230158Z AUTO 16014G20KT 10SM OVC007 13/13 A2972 RMK AO2 SLP067 T01250125
KICT Tower
kictKICT 230153Z 17015KT 10SM OVC008 13/11 A2971 RMK AO2 CIG 007V012 SLP059 T01330111
KLAN Del/Gnd/Twr/App
klanKLAN 230153Z 22015KT 4SM BR OVC009 08/07 A2990 RMK AO2 RAE02 CIG 006V011 SLP131 P0002 T00830072 $
KMFE Gnd/Twr/App
kmfeKMFE 230153Z 20004KT 9SM OVC019 23/21 A2979 RMK AO2 LTG DSNT NW-NE SLP085 T02330206
KMSN Twr/App
kmsnKMSN 230153Z 18007KT 3SM BR OVC006 08/07 A2976 RMK AO2 CIG 003V010 SLP085 T00780067
KMSP Minneapolis App
kmspKMSP 230153Z 14008KT 2SM BR OVC003 02/02 A2959 RMK AO2 SLP027 T00220017
KMYV CTAF/NORCAL App
kmyvKMYV 230153Z AUTO 00000KT 1/2SM FG VV012 11/11 A3017 RMK AO2 SLP220 T01060106
KOMA Del/Gnd/Twr
komaKOMA 230152Z 16012KT 10SM OVC008 12/12 A2960 RMK AO2 CIG 008V012 SLP026 T01220117
KORH Ground/Tower/App
korhKORH 230154Z AUTO 25023G33KT 10SM CLR 03/M09 A3004 RMK AO2 PK WND 24034/0056 SLP184 LAST AUGMENTED OBS T00281094
KPBI Del/Gnd/Twr/App/ZMA
kpbiKPBI 230153Z 09025G32KT 10SM BKN018 OVC030 25/21 A3010 RMK AO2 PK WND 09033/0129 SLP191 T02500206
KPDT Tower
kpdtKPDT 230153Z 26029G38KT 10SM CLR 06/01 A2994 RMK AO2 PK WND 26042/0058 SLP139 T00610011
KPNS/KNPA Del/Gnd/Twr/App
kpnsKPNS 230153Z 04006KT 8SM -RA OVC006 14/14 A3007 RMK AO2 RAB09 CIG 004V009 SLP186 P0001 T01440144
KRNH CTAF/Clearance
krnhKRNH 230155Z AUTO 14007KT 1 1/2SM BR OVC004 02/02 A2962 RMK AO2 T00180018
KSAT Gnd/Twr
ksatKSAT 230154Z 32033G55KT 2SM R12R/1800VP6000FT +TSRA SCT016 BKN029 OVC070 17/11 A2973 RMK AO2 TS CNS LTG ALQDS MOV E P0024 T01720111
KSJT Tower/Approach
ksjtKSJT 230151Z 00000KT 10SM CLR 14/13 A2982 RMK AO2 LTG DSNT SE AND S SLP088 T01440128
KTUL Del/Gnd/Twr/App
ktulKTUL 230153Z 16020G32KT 9SM -RA OVC100 14/13 A2978 RMK AO2 PK WND 17038/0133 RAB18 SLP081 P0000 T01390128
KTVC Gnd/Twr/ZMP
ktvcKTVC 230153Z 00000KT 1 1/2SM BR OVC004 04/03 A2979 RMK AO2 SLP094 LAST AUGMENTED OBS OF DAY UNTIL 12Z T00390033
LDZA Twr/Radar/Ops
WX MAP UNAVAILABLELDZA 230200Z VRB01KT 0400 R05/1000N R23/0900N FG VV002 03/03 Q1028 NOSIG
LKAA FIR (High)
WX MAP UNAVAILABLELKPR 230130Z 16005KT 4500 BR BKN002 OVC003 01/00 Q1026 NOSIG
LSGG Radar
WX MAP UNAVAILABLELSGG 230150Z 24003KT 0600 R05/0900N R23/0900N FG VV002 06/06 Q1023 BECMG 0350 FG
LSZB Tower/App/Dep
WX MAP UNAVAILABLELSZB 230150Z AUTO 27002KT 0150 R14/0325U FG VV001 04/04 Q1022
LSZG Tower
WX MAP UNAVAILABLELSZG 230150Z AUTO VRB01KT 0200 FG VV002 05/05 Q1023
LSZH Tower #2
WX MAP UNAVAILABLELSZH 230150Z VRB02KT 0450 R14/0750N R16/0800N R28/0800N R34/0750N FG VV002 04/04 Q1023 NOSIG
LSZR Tower
WX MAP UNAVAILABLELSZR 230150Z AUTO VRB02KT 0550 R10/1500D FG VV002 06/06 Q1023
PASC CTAF/Unicom/AFIS/App
WX MAP UNAVAILABLEPASC 230153Z 09024G30KT 4SM BLSN CLR M14/M17 A2973 RMK AO2 PK WND 09030/0150 SLP070 T11391167
PGUM/PGUA Gnd/Twr/App/Center
pguaPGUA 230158Z AUTO 12010KT 10SM SCT016 BKN022 29/25 A2989 RMK AO2 CIG 017 RWY24L SLP112 T02880254 RVRNO $
RKSI Incheon Control
WX MAP UNAVAILABLERKSI 230130Z 06007KT 0800 R33R/P2000N R33L/1400N R34/P2000N FG VV002 06/05 Q1027 NOSIG
UIII Irkutsk Control
WX MAP UNAVAILABLEUIII 230130Z 08002MPS 0100 R12/0100N FZFG VV001 M16/M17 Q1020 TEMPO 0300 FZFG VV001 RMK QBB030 QFE723/0964 12350150
UNNT Gnd/Twr/App/Radar/Misc
WX MAP UNAVAILABLEUNNT 230130Z 21010MPS 4000 -SN DRSN OVC027 M05/M07 Q1006 16390140 25390132 NOSIG RMK QFE745/0993